Capt. Ted — WDD6210 — position and weather

sailwx.info

Track history (hours):
 
Tides and Currents Weather Stations Pressure Air Temp Water Temp Dewpoint Dewpoint Depression Visibility Wind Speed Wind Dir Waves Ship Positions

Capt. Ted

Owner: Salisbury Towing Corporation, Havre de Grace, MD. More information available from US FCC via Universal Licensing System and Coast Guard Vessel Documentation Center.

Last reported at 2015-Feb-16 18:22 UTC. Time now 2015-Mar-05 11:54 UTC.
Position N 37°57' W 076°15'.
Warning: this ship's position is 16 days out of date.

Length 32 m; draft 2.8 m.

Type: Tug. MMSI: 367169710.

Date/timePositionNaut miles runAvg speedWind from/ knotsBaromVisibWave heightAir tempDewpointWater temp
2015-Feb-16 18:22N 37°57' W 076°15'6 7.2
2015-Feb-16 17:33N 38°00' W 076°21'7 6.7
2015-Feb-16 16:33N 38°04' W 076°28'6 6.3
2015-Feb-16 15:33N 38°09' W 076°34'  
2015-Feb-12 04:16N 38°08' W 076°34'5 6.8
2015-Feb-12 03:33N 38°05' W 076°29'7 6.7
2015-Feb-12 02:33N 38°01' W 076°22'  
2015-Feb-08 17:33N 37°59' W 076°19'8 8.0
2015-Feb-08 16:33N 38°04' W 076°27'9 8.3
2015-Feb-08 15:30N 38°10' W 076°36'38 5.4
2015-Feb-08 08:21N 38°35' W 077°13'4 0.5
2015-Feb-08 01:29N 38°32' W 077°16'42 5.8
2015-Feb-07 18:20N 38°07' W 076°33'5 7.0
2015-Feb-07 17:33N 38°04' W 076°28'7 6.9
2015-Feb-07 16:34N 38°00' W 076°21'  
Track history (hours):
 
Tides and Currents Weather Stations Pressure Air Temp Water Temp Dewpoint Dewpoint Depression Visibility Wind Speed Wind Dir Waves Ship Positions

Capt. Ted

Owner: Salisbury Towing Corporation, Havre de Grace, MD. More information available from US FCC via Universal Licensing System and Coast Guard Vessel Documentation Center.

Last reported at 2015-Feb-16 18:22 UTC. Time now 2015-Mar-05 11:54 UTC.
Position N 37°57' W 076°15'.
Warning: this ship's position is 16 days out of date.

Length 32 m; draft 2.8 m.

Type: Tug. MMSI: 367169710.

Date/timePositionNaut miles runAvg speedWind from/ knotsBaromVisibWave heightAir tempDewpointWater temp
2015-Feb-16 18:22N 37°57' W 076°15'6 7.2
2015-Feb-16 17:33N 38°00' W 076°21'7 6.7
2015-Feb-16 16:33N 38°04' W 076°28'6 6.3
2015-Feb-16 15:33N 38°09' W 076°34'  
2015-Feb-12 04:16N 38°08' W 076°34'5 6.8
2015-Feb-12 03:33N 38°05' W 076°29'7 6.7
2015-Feb-12 02:33N 38°01' W 076°22'  
2015-Feb-08 17:33N 37°59' W 076°19'8 8.0
2015-Feb-08 16:33N 38°04' W 076°27'9 8.3
2015-Feb-08 15:30N 38°10' W 076°36'38 5.4
2015-Feb-08 08:21N 38°35' W 077°13'4 0.5
2015-Feb-08 01:29N 38°32' W 077°16'42 5.8
2015-Feb-07 18:20N 38°07' W 076°33'5 7.0
2015-Feb-07 17:33N 38°04' W 076°28'7 6.9
2015-Feb-07 16:34N 38°00' W 076°21'  

Dump ship's entire track history